20 mai 2022

Temps Code Temps Temp. Vue Des nuages Vent METAR/SPECI
18:00
V
23 °C 10 km+ - 280°   280° 12 kt METAR LFBL 201600Z AUTO 28012KT 9999 FEW027 23/17 Q1023 NOSIG
17:30
V
24 °C 10 km+ - 280°   280° 12 kt METAR LFBL 201530Z AUTO 28012KT 240V320 9999 FEW037 24/17 Q1023 NOSIG
17:00
V
26 °C 10 km+ - 260°   260° 12 kt METAR LFBL 201500Z AUTO 26012KT 230V300 CAVOK 26/15 Q1022 TEMPO SCT040TCU
16:30
V
25 °C 10 km+ - 250°   250° 13 26 kt METAR LFBL 201430Z AUTO 25013G26KT 210V280 9999 FEW048 25/14 Q1022 TEMPO SCT040TCU
16:00
V
25 °C 10 km+ - 230°   230° 17 kt METAR LFBL 201400Z AUTO 23017KT 9999 SCT045 25/14 Q1022 TEMPO SCT040TCU
15:30
V
25 °C 10 km+ - 240°   240° 14 kt METAR LFBL 201330Z AUTO 24014KT 210V280 CAVOK 25/14 Q1022 TEMPO SCT040TCU
15:00
V
25 °C 10 km+ - 220°   220° 13 kt METAR LFBL 201300Z AUTO 22013KT 190V260 CAVOK 25/15 Q1022 TEMPO SCT040TCU
14:30
V
25 °C 10 km+ - 220°   220° 13 kt METAR LFBL 201230Z AUTO 22013KT 190V250 CAVOK 25/14 Q1022 TEMPO SCT040TCU
14:00
V
24 °C 10 km+ - 210°   210° 15 kt METAR LFBL 201200Z AUTO 21015KT CAVOK 24/14 Q1022 TEMPO SCT040TCU BECMG 28014KT
13:30
V
24 °C 10 km+ - 200°   200° 13 kt METAR LFBL 201130Z AUTO 20013KT CAVOK 24/14 Q1022 BECMG 27012KT
13:00
V
24 °C 10 km+ - 200°   200° 14 kt METAR LFBL 201100Z AUTO 20014KT CAVOK 24/14 Q1021 BECMG 27012KT
12:30
V
25 °C 10 km+ - 200°   200° 12 kt METAR LFBL 201030Z AUTO 20012KT CAVOK 25/14 Q1022 BECMG 27012KT
12:00
V
24 °C 10 km+ - 190°   190° 15 kt METAR LFBL 201000Z AUTO 19015KT CAVOK 24/13 Q1021 NOSIG
11:30
V
24 °C 10 km+ - 190°   190° 14 kt METAR LFBL 200930Z AUTO 19014KT CAVOK 24/12 Q1021 NOSIG
11:00
V
24 °C 10 km+ - 200°   200° 14 kt METAR LFBL 200900Z AUTO 20014KT CAVOK 24/12 Q1021 NOSIG
10:30
V
23 °C 10 km+ - 190°   190° 11 kt METAR LFBL 200830Z AUTO 19011KT CAVOK 23/12 Q1021 NOSIG
10:00
V
23 °C 10 km+ - 170°   170° 11 kt METAR LFBL 200800Z AUTO 17011KT 150V210 CAVOK 23/11 Q1020 NOSIG
09:30
V
22 °C 10 km+ - 170°   170° 10 kt METAR LFBL 200730Z AUTO 17010KT 120V200 CAVOK 22/10 Q1020 NOSIG
09:00
V
21 °C 10 km+ - 160°   160° 8 kt METAR LFBL 200700Z AUTO 16008KT 130V210 CAVOK 21/10 Q1020 NOSIG
08:30
V
21 °C 10 km+ - 150°   150° 7 kt METAR LFBL 200630Z AUTO 15007KT 120V190 9999 //////TCU 21/09 Q1020 BECMG NSC
08:00
V
20 °C 10 km+ - 140°   140° 8 kt METAR LFBL 200600Z AUTO 14008KT 110V170 CAVOK 20/08 Q1019 NOSIG
07:30
V
19 °C 10 km+ - 120°   120° 8 kt METAR LFBL 200530Z AUTO 12008KT CAVOK 19/08 Q1019 BECMG 18010KT
07:00
V
19 °C 10 km+ - 130°   130° 8 kt METAR LFBL 200500Z AUTO 13008KT CAVOK 19/08 Q1019 NOSIG
06:30
V
19 °C 10 km+ - 130°   130° 8 kt METAR LFBL 200430Z AUTO 13008KT CAVOK 19/08 Q1019 NOSIG
06:00
V
19 °C 10 km+ - 120°   120° 7 kt METAR LFBL 200400Z AUTO 12007KT CAVOK 19/08 Q1019 NOSIG
05:30
V
20 °C 10 km+ - 130°   130° 8 kt METAR LFBL 200330Z AUTO 13008KT CAVOK 20/08 Q1019 NOSIG
05:00
V
20 °C 10 km+ - 130°   130° 8 kt METAR LFBL 200300Z AUTO 13008KT CAVOK 20/08 Q1019 TEMPO FEW060CB
04:30
V
20 °C 10 km+ - 110°   110° 4 kt METAR LFBL 200230Z AUTO 11004KT 070V180 CAVOK 20/09 Q1019 TEMPO FEW060CB
04:00
V
20 °C 10 km+ - 120°   120° 7 kt METAR LFBL 200200Z AUTO 12007KT 090V150 CAVOK 20/09 Q1019 TEMPO FEW060CB
03:30
V
20 °C 10 km+ - 130°   130° 8 kt METAR LFBL 200130Z AUTO 13008KT CAVOK 20/09 Q1019 TEMPO FEW060CB
03:00
V
20 °C 10 km+ - 130°   130° 7 kt METAR LFBL 200100Z AUTO 13007KT CAVOK 20/10 Q1020 TEMPO FEW060CB
02:30
V
20 °C 10 km+ - 120°   120° 7 kt METAR LFBL 200030Z AUTO 12007KT CAVOK 20/10 Q1020 TEMPO FEW060CB
02:00
V
20 °C 10 km+ - 130°   130° 6 kt METAR LFBL 200000Z AUTO 13006KT CAVOK 20/12 Q1020 TEMPO FEW060CB
01:30
V
21 °C 10 km+ - 120°   120° 5 kt METAR LFBL 192330Z AUTO 12005KT CAVOK 21/13 Q1020 TEMPO FEW060CB
01:00
V
21 °C 10 km+ - 120°   120° 5 kt METAR LFBL 192300Z AUTO 12005KT CAVOK 21/14 Q1020 TEMPO VRB20G40KT 1500 TSRAGR BKN050CB
00:30
V
22 °C 10 km+ - 140°   140° 6 kt METAR LFBL 192230Z AUTO 14006KT CAVOK 22/14 Q1020 TEMPO VRB20G40KT 1500 TSRAGR BKN050CB
00:00
V
22 °C 10 km+ - 130°   130° 5 kt METAR LFBL 192200Z AUTO 13005KT 100V160 CAVOK 22/15 Q1020 TEMPO VRB20G40KT 1500 TSRAGR BKN050CB

19 mai 2022

Temps Code Temps Temp. Vue Des nuages Vent METAR/SPECI
23:30
V
22 °C 10 km+ - 080°   080° 3 kt METAR LFBL 192130Z AUTO 08003KT CAVOK 22/17 Q1020 TEMPO VRB20G40KT 1500 TSRAGR BKN050CB
23:00
V
23 °C 10 km+ - 070°   070° 3 kt METAR LFBL 192100Z AUTO 07003KT CAVOK 23/17 Q1020 TEMPO VRB20G40KT 3000 TSRA BKN100CB
22:30
V
22 °C 10 km+ - 070°   070° 2 kt METAR LFBL 192030Z AUTO 07002KT CAVOK 22/17 Q1020 TEMPO VRB20G40KT 3000 TSRA BKN100CB
22:00
V
23 °C 10 km+ - 040°   040° 1 kt METAR LFBL 192000Z AUTO 04001KT CAVOK 23/17 Q1020 TEMPO BKN110TCU
21:30
V
23 °C 10 km+ - Var   000° 0 kt METAR LFBL 191930Z AUTO 00000KT CAVOK 23/17 Q1020 TEMPO BKN110TCU
21:00
V
24 °C 10 km+ - 190°   190° 3 kt METAR LFBL 191900Z AUTO 19003KT CAVOK 24/17 Q1020 NOSIG
20:30
V
25 °C 10 km+ - 190°   190° 4 kt METAR LFBL 191830Z AUTO 19004KT CAVOK 25/17 Q1020 NOSIG
20:00
V
25 °C 10 km+ - 170°   170° 5 kt METAR LFBL 191800Z AUTO 17005KT CAVOK 25/17 Q1020 NOSIG
19:30
V
25 °C 10 km+ - 180°   180° 6 kt METAR LFBL 191730Z AUTO 18006KT CAVOK 25/17 Q1020 NOSIG
19:00
V
26 °C 10 km+ - 180°   180° 6 kt METAR LFBL 191700Z AUTO 18006KT 130V210 CAVOK 26/17 Q1020 NOSIG
18:30
V
26 °C 10 km+ - 180°   180° 6 kt METAR LFBL 191630Z AUTO 18006KT 150V230 CAVOK 26/18 Q1020 NOSIG
18:00
V
25 °C 10 km+ - 160°   160° 5 kt METAR LFBL 191600Z AUTO 16005KT 130V210 CAVOK 25/17 Q1020 NOSIG
17:30
V
25 °C 10 km+ - 170°   170° 6 kt METAR LFBL 191530Z AUTO 17006KT 130V190 CAVOK 25/18 Q1020 NOSIG
17:00
V
25 °C 10 km+ - 170°   170° 5 kt METAR LFBL 191500Z AUTO 17005KT 140V250 CAVOK 25/18 Q1021 NOSIG
16:30
V
25 °C 10 km+ 12.000 ft 180°   180° 8 kt METAR LFBL 191430Z AUTO 18008KT 140V210 9999 SCT029 SCT034 BKN120 25/17 Q1021 NOSIG
16:00
V
25 °C 10 km+ 12.000 ft 170°   170° 6 kt METAR LFBL 191400Z AUTO 17006KT 120V240 9999 SCT028 BKN120 25/18 Q1022 NOSIG
15:30
V
24 °C 10 km+ - 210°   210° 6 kt METAR LFBL 191330Z AUTO 21006KT 150V240 9999 SCT030 SCT130 24/17 Q1022 NOSIG
15:00
V
25 °C 10 km+ 12.000 ft 180°   180° 5 kt METAR LFBL 191300Z AUTO 18005KT 120V250 9999 SCT028 BKN120 25/17 Q1022 NOSIG
14:30
M
24 °C 10 km+ 2.600 ft 180°   180° 8 kt METAR LFBL 191230Z AUTO 18008KT 150V230 9999 BKN026 BKN031 BKN120 24/17 Q1021 NOSIG
14:00
V
23 °C 10 km+ 3.100 ft Var   Var 6 kt METAR LFBL 191200Z AUTO VRB06KT 9999 SCT023 BKN031 BKN120 23/17 Q1022 NOSIG
13:30
V
22 °C 10 km+ 12.000 ft 210°   210° 5 kt METAR LFBL 191130Z AUTO 21005KT 110V260 9999 FEW011/// SCT025/// BKN120/// ///TCU 22/17 Q1022 BECMG NSC
13:00
M
22 °C 10 km+ 2.900 ft 240°   240° 5 kt METAR LFBL 191100Z AUTO 24005KT 200V280 9999 SCT020 BKN029 BKN150 22/17 Q1022 NOSIG
12:30
M
21 °C 10 km+ 2.500 ft 280°   280° 6 kt METAR LFBL 191030Z AUTO 28006KT 250V330 9999 FEW015 BKN025 BKN031 21/17 Q1022 BECMG 18010KT
12:00
M
21 °C 10 km+ 2.500 ft 270°   270° 9 kt METAR LFBL 191000Z AUTO 27009KT 9999 SCT019/// BKN025/// BKN120/// ///TCU 21/17 Q1022 BECMG 18010KT NSC
11:30
V
22 °C 10 km+ 14.000 ft 230°   230° 6 kt METAR LFBL 190930Z AUTO 23006KT 9999 FEW024 BKN140 22/17 Q1021 NOSIG
11:00
V
22 °C 10 km+ - 210°   210° 8 kt METAR LFBL 190900Z AUTO 21008KT 180V250 CAVOK 22/16 Q1021 NOSIG
10:30
V
21 °C 10 km+ - 200°   200° 8 kt METAR LFBL 190830Z AUTO 20008KT 180V240 CAVOK 21/16 Q1021 NOSIG
10:00
V
19 °C 10 km+ - 230°   230° 7 kt METAR LFBL 190800Z AUTO 23007KT 9999 VCTS ///CB 19/16 Q1021 BECMG NSW NSC
09:30
V
19 °C 10 km+ - 260°   260° 8 kt METAR LFBL 190730Z AUTO 26008KT 230V290 9999 VCTS ///CB 19/16 Q1021 BECMG NSW NSC
09:00
V
18 °C 10 km+ - 250°   250° 7 kt METAR LFBL 190700Z AUTO 25007KT 200V290 CAVOK 18/16 Q1020 NOSIG
08:30
V
19 °C 10 km+ - 120°   120° 7 kt METAR LFBL 190630Z AUTO 12007KT 090V150 9999 ///TCU 19/15 Q1020 BECMG NSC
08:00
V
18 °C 10 km+ 9.600 ft 100°   100° 7 kt METAR LFBL 190600Z AUTO 10007KT 030V170 9999 FEW046/// SCT078/// BKN096/// ///TCU 18/15 Q1020 TEMPO 4000 SHRA SCT070CB
07:30
V
18 °C 10 km+ - 190°   190° 9 kt METAR LFBL 190530Z AUTO 19009KT 9999 ///CB 18/15 Q1021 BECMG NSC
07:00
V
18 °C 10 km+ - 220°   220° 12 kt METAR LFBL 190500Z AUTO 22012KT 190V250 9999 //////CB 18/15 Q1021 BECMG 10005KT NSC
06:30
V
18 °C 10 km+ - 200°   200° 10 kt METAR LFBL 190430Z AUTO 20010KT 170V240 9999 ///TCU 18/16 Q1020 BECMG 10005KT NSC
06:00
V
17 °C 10 km+ - 230°   230° 8 kt METAR LFBL 190400Z AUTO 23008KT 9999 ///TCU 17/16 Q1019 TEMPO 30015G28KT 3000 TSRA SCT008 SCT040CB
05:30
V
18 °C 10 km+ - 100°   100° 3 kt METAR LFBL 190330Z AUTO 10003KT 070V130 CAVOK 18/15 Q1019 TEMPO 30015G28KT 3000 TSRA SCT008 SCT040CB
05:00
V
18 °C 10 km+ - 060°   060° 5 kt METAR LFBL 190300Z AUTO 06005KT CAVOK 18/15 Q1018 TEMPO 30015G28KT 3000 TSRA SCT008 SCT040CB
04:30
V
17 °C 10 km+ - 070°   070° 5 kt METAR LFBL 190230Z AUTO 07005KT CAVOK 17/15 Q1019 TEMPO 30015G28KT 3000 TSRA SCT008 SCT040CB
04:00
V
18 °C 10 km+ - 090°   090° 5 kt METAR LFBL 190200Z AUTO 09005KT CAVOK 18/15 Q1019 TEMPO 30015G28KT 3000 TSRA SCT008 SCT040CB
03:30
V
18 °C 10 km+ - 180°   180° 5 kt METAR LFBL 190130Z AUTO 18005KT 150V210 CAVOK 18/15 Q1019 TEMPO 30015G28KT 3000 TSRA SCT008 SCT040CB
03:00
V
18 °C 10 km+ - 170°   170° 5 kt METAR LFBL 190100Z AUTO 17005KT 9999 ///CB 18/14 Q1019 TEMPO 30015G28KT 3000 TSRA NSC
02:30
V
17 °C 10 km+ 15.000 ft 190°   190° 8 kt METAR LFBL 190030Z AUTO 19008KT 160V220 9999 TS FEW014/// SCT096/// OVC150/// //////CB 17/15 Q1019 TEMPO 30015G28KT 3000 TSRA NSC
02:00
L
20 °C 750 m 9.600 ft 190°   190° 15 27 kt METAR LFBL 190000Z AUTO 19015G27KT 130V240 9999 0750 R21/2800D R03/1800D TSRA BCFG FEW033/// SCT054/// BKN096/// ///CB 20/17 Q1020 BECMG 10005KT NSW NSC
01:30
V
22 °C 10 km+ - 080°   080° 3 kt METAR LFBL 182330Z AUTO 08003KT 9999 ///CB 22/15 Q1018 BECMG NSC
01:00
V
22 °C 10 km+ - Var   Var 3 kt METAR LFBL 182300Z AUTO VRB03KT CAVOK 22/14 Q1018 TEMPO VRB15G25KT 3000 TSRA BKN008 SCT040CB
00:30
V
22 °C 10 km+ - 300°   300° 7 kt METAR LFBL 182230Z AUTO 30007KT CAVOK 22/16 Q1018 TEMPO VRB15G25KT 3000 TSRA BKN008 SCT040CB
00:00
V
24 °C 10 km+ - 040°   040° 3 kt METAR LFBL 182200Z AUTO 04003KT 9999 ///TCU 24/16 Q1018 TEMPO VRB15G25KT 3000 TSRA BKN008 SCT040CB

18 mai 2022

Temps Code Temps Temp. Vue Des nuages Vent METAR/SPECI
23:30
V
24 °C 10 km+ - Var   000° 0 kt METAR LFBL 182130Z AUTO 00000KT CAVOK 24/16 Q1018 TEMPO VRB15G25KT 3000 TSRA BKN008 SCT040CB
23:00
V
23 °C 10 km+ - 160°   160° 1 kt METAR LFBL 182100Z AUTO 16001KT CAVOK 23/15 Q1018 TEMPO VRB15G25KT 3000 TSRA BKN008 SCT040CB
22:30
V
24 °C 10 km+ - Var   Var 2 kt METAR LFBL 182030Z AUTO VRB02KT CAVOK 24/15 Q1018 TEMPO VRB15G25KT 3000 TSRA BKN008 SCT040CB
22:00
V
25 °C 10 km+ - Var   Var 1 kt METAR LFBL 182000Z AUTO VRB01KT CAVOK 25/15 Q1017 TEMPO FEW070CB
21:30
V
26 °C 10 km+ - 060°   060° 2 kt METAR LFBL 181930Z AUTO 06002KT CAVOK 26/15 Q1017 TEMPO FEW070CB
21:00
V
26 °C 10 km+ - Var   Var 1 kt METAR LFBL 181900Z AUTO VRB01KT CAVOK 26/15 Q1017 TEMPO FEW070CB
20:30
V
26 °C 10 km+ - 190°   190° 4 kt METAR LFBL 181830Z AUTO 19004KT CAVOK 26/15 Q1017 TEMPO FEW070CB
20:00
V
27 °C 10 km+ - 200°   200° 7 kt METAR LFBL 181800Z AUTO 20007KT CAVOK 27/16 Q1017 NOSIG
19:30
V
28 °C 10 km+ - 190°   190° 7 kt METAR LFBL 181730Z AUTO 19007KT CAVOK 28/15 Q1017 NOSIG
19:00
V
29 °C 10 km+ - 200°   200° 8 kt METAR LFBL 181700Z AUTO 20008KT CAVOK 29/15 Q1017 NOSIG
18:30
V
29 °C 10 km+ - 210°   210° 14 kt METAR LFBL 181630Z AUTO 21014KT CAVOK 29/15 Q1017 NOSIG
18:00
V
30 °C 10 km+ - 180°   180° 9 kt METAR LFBL 181600Z AUTO 18009KT CAVOK 30/14 Q1017 NOSIG
17:30
V
30 °C 10 km+ - 190°   190° 11 kt METAR LFBL 181530Z AUTO 19011KT CAVOK 30/15 Q1018 NOSIG
17:00
V
29 °C 10 km+ - 190°   190° 11 kt METAR LFBL 181500Z AUTO 19011KT 160V220 CAVOK 29/14 Q1018 NOSIG
Données plus anciennes

Télécharge notre application

Un accès facile à toute la météo aéronautique sur ton téléphone portable et ta tablette.
Avec de nombreuses fonctionnalités non disponibles sur le site Web, comme la prise en charge hors ligne et une liste personnelle d'aéroports.

Nous et des tiers suivons ton comportement sur Internet sur notre site Web à l'aide de cookies. Si tu continues, nous supposons que tu acceptes notre politique en matière de cookies. Apprendre plus